Time;durP1;ratioP1;P1;durP2;ratioP2;P2;SDS_P1;SDS_P2;PMS_P1;PMS_P2;Temp;Humidity;BMP_temperature;BMP_pressure;BME280_temperature;BME280_humidity;BME280_pressure;Samples;Min_cycle;Max_cycle;Signal;HPM_P1;HPM_P2
2022/06/08 00:00:16;;;;;;;1.52;1.20;;;13.50;99.90;;;13.16;100.00;96990.72;5001775;28;20033;-42
2022/06/08 00:02:44;;;;;;;2.17;1.30;;;13.50;99.90;;;13.15;100.00;96993.44;5003996;28;20481;-42
2022/06/08 00:05:10;;;;;;;4.50;1.38;;;13.50;99.90;;;13.14;100.00;96983.81;4994311;28;20054;-42
2022/06/08 00:07:36;;;;;;;3.67;1.40;;;13.50;99.90;;;13.11;100.00;96987.47;4998545;28;20101;-41
2022/06/08 00:10:04;;;;;;;2.25;1.60;;;13.40;99.90;;;13.12;100.00;96988.34;5008713;28;20101;-42
2022/06/08 00:12:30;;;;;;;2.03;1.50;;;13.40;99.90;;;13.11;100.00;96979.53;5003359;28;20022;-44
2022/06/08 00:14:56;;;;;;;2.50;1.30;;;13.50;99.90;;;13.14;100.00;96975.88;5006844;28;20069;-42
2022/06/08 00:17:22;;;;;;;1.83;1.30;;;13.50;99.90;;;13.15;100.00;96981.09;5010685;28;20454;-44
2022/06/08 00:19:48;;;;;;;2.53;1.40;;;13.40;99.90;;;13.17;100.00;96976.56;5003086;28;20514;-43
2022/06/08 00:22:14;;;;;;;2.28;1.42;;;13.50;99.90;;;13.22;100.00;96978.09;5002446;28;20022;-42
2022/06/08 00:24:40;;;;;;;1.40;1.30;;;13.50;99.90;;;13.23;100.00;96971.88;5002061;28;20557;-43
2022/06/08 00:27:06;;;;;;;2.00;1.30;;;13.50;99.90;;;13.26;100.00;96975.22;4995886;28;20029;-42
2022/06/08 00:29:32;;;;;;;2.17;1.50;;;13.50;99.90;;;13.28;100.00;96972.44;4998043;28;20505;-41
2022/06/08 00:31:57;;;;;;;1.40;1.30;;;13.60;99.90;;;13.27;100.00;96971.59;5010629;28;20033;-43
2022/06/08 00:34:23;;;;;;;1.50;1.23;;;13.60;99.90;;;13.22;100.00;96957.75;5002199;28;20018;-41
2022/06/08 00:36:49;;;;;;;1.80;1.30;;;13.50;99.90;;;13.23;100.00;96953.34;5004886;28;20256;-42
2022/06/08 00:39:15;;;;;;;2.20;1.30;;;13.60;99.90;;;13.26;100.00;96958.44;5008148;28;20034;-41
2022/06/08 00:41:48;;;;;;;1.20;1.10;;;13.60;99.90;;;13.24;100.00;96958.53;4999326;28;20514;-42
2022/06/08 00:44:23;;;;;;;2.15;1.45;;;13.60;99.90;;;13.22;100.00;96962.19;5007232;28;20057;-41
2022/06/08 00:46:50;;;;;;;2.08;1.80;;;13.60;99.90;;;13.17;100.00;96954.50;5026680;28;20048;-41
2022/06/08 00:49:36;;;;;;;1.77;1.50;;;13.50;99.90;;;13.10;100.00;96948.72;5000513;28;20033;-42
2022/06/08 00:52:05;;;;;;;1.83;1.30;;;13.50;99.90;;;13.07;100.00;96955.97;5023839;28;20118;-42
2022/06/08 00:54:37;;;;;;;2.55;1.35;;;13.40;99.90;;;13.00;100.00;96947.47;5000969;28;20050;-43
2022/06/08 00:57:09;;;;;;;1.58;1.40;;;13.40;99.90;;;12.97;100.00;96958.22;5003242;28;20028;-42
2022/06/08 00:59:40;;;;;;;1.50;1.30;;;13.30;99.90;;;12.94;100.00;96961.06;5001883;28;20048;-41
2022/06/08 01:02:06;;;;;;;2.83;1.40;;;13.30;99.90;;;12.73;100.00;96923.34;5000414;28;20026;-42
2022/06/08 01:04:31;;;;;;;2.05;1.40;;;13.30;99.90;;;12.92;100.00;96954.97;4998199;28;20157;-42
2022/06/08 01:06:58;;;;;;;2.05;1.40;;;13.30;99.90;;;12.93;100.00;96956.69;5002624;28;20068;-44
2022/06/08 01:09:32;;;;;;;2.92;1.40;;;13.20;99.90;;;12.94;100.00;96953.13;4998553;28;20418;-43
2022/06/08 01:12:08;;;;;;;2.08;1.40;;;13.30;99.90;;;12.93;100.00;96951.41;5007523;28;20473;-41
2022/06/08 01:14:35;;;;;;;3.25;1.38;;;13.20;99.90;;;12.93;100.00;96944.31;5006997;28;20117;-42
2022/06/08 01:17:07;;;;;;;3.65;1.48;;;13.30;99.90;;;12.95;100.00;96941.56;5003856;28;20029;-41
2022/06/08 01:19:39;;;;;;;2.92;1.58;;;13.30;99.90;;;12.95;100.00;96934.50;5001416;28;20034;-42
2022/06/08 01:22:09;;;;;;;1.45;1.30;;;13.30;99.90;;;12.94;100.00;96940.72;5008148;28;20061;-41
2022/06/08 01:24:35;;;;;;;1.58;1.40;;;13.30;99.90;;;12.94;100.00;96931.94;5005569;28;20026;-41
2022/06/08 01:27:22;;;;;;;2.17;1.40;;;13.30;99.90;;;12.94;100.00;96932.78;4998260;28;20039;-41
2022/06/08 01:30:08;;;;;;;1.50;1.30;;;13.20;99.90;;;12.91;100.00;96926.81;4997266;28;20034;-43
2022/06/08 01:33:26;;;;;;;2.45;1.48;;;13.20;99.90;;;12.85;100.00;96924.47;5003582;28;20065;-42
2022/06/08 01:36:14;;;;;;;3.05;1.80;;;13.20;99.90;;;12.77;100.00;96915.16;4996418;28;20521;-41
2022/06/08 01:38:46;;;;;;;2.22;1.40;;;13.20;99.90;;;12.81;100.00;96926.44;4998395;28;20033;-41
2022/06/08 01:41:56;;;;;;;3.10;1.55;;;13.20;99.90;;;12.79;100.00;96928.31;5003474;28;20025;-41
2022/06/08 01:45:28;;;;;;;3.65;1.67;;;13.20;99.90;;;12.77;100.00;96919.59;5002443;28;20041;-42
2022/06/08 01:48:12;;;;;;;1.40;1.25;;;13.10;99.90;;;12.72;100.00;96921.63;5014986;28;20037;-41
2022/06/08 01:50:58;;;;;;;2.03;1.52;;;13.10;99.90;;;12.69;100.00;96925.31;4995641;28;20049;-41
2022/06/08 01:53:51;;;;;;;2.08;1.75;;;13.00;99.90;;;12.65;100.00;96912.31;5001585;28;20038;-41
2022/06/08 01:56:54;;;;;;;3.47;1.30;;;13.00;99.90;;;12.60;100.00;96910.78;5004508;28;20235;-41
2022/06/08 01:59:36;;;;;;;2.13;1.63;;;13.00;99.90;;;12.57;100.00;96910.09;4997805;28;20509;-41
2022/06/08 02:02:32;;;;;;;3.87;1.50;;;12.90;99.90;;;12.46;100.00;96897.44;4998053;28;20022;-41
2022/06/08 02:05:15;;;;;;;3.55;1.60;;;12.80;99.90;;;12.49;100.00;96909.63;5007144;28;20821;-41
2022/06/08 02:07:48;;;;;;;3.30;1.80;;;12.80;99.90;;;12.45;100.00;96903.63;4998246;28;20386;-43
2022/06/08 02:10:27;;;;;;;2.90;1.55;;;12.80;99.90;;;12.41;100.00;96902.09;4999820;28;20088;-40
2022/06/08 02:13:08;;;;;;;2.03;1.50;;;12.80;99.90;;;12.37;100.00;96906.69;5015711;28;20045;-42
2022/06/08 02:15:43;;;;;;;3.00;1.50;;;12.70;99.90;;;12.36;100.00;96901.47;4998756;28;20026;-42
2022/06/08 02:18:25;;;;;;;2.78;1.52;;;12.70;99.90;;;12.32;100.00;96898.13;4997772;28;20018;-42
2022/06/08 02:20:59;;;;;;;1.90;1.58;;;12.70;99.90;;;12.32;100.00;96899.94;5019434;28;20049;-41
2022/06/08 02:23:35;;;;;;;2.15;1.50;;;12.70;99.90;;;12.16;100.00;96869.00;5017130;28;20033;-42
2022/06/08 02:26:12;;;;;;;2.67;1.88;;;12.70;99.90;;;12.27;100.00;96897.50;5008220;28;20120;-41
2022/06/08 02:28:53;;;;;;;2.95;1.88;;;12.60;99.90;;;12.24;100.00;96884.47;5013909;28;20374;-41
2022/06/08 02:31:48;;;;;;;2.55;1.73;;;12.60;99.90;;;12.18;100.00;96890.06;5004928;28;20037;-40
2022/06/08 02:34:28;;;;;;;3.90;1.90;;;12.50;99.90;;;12.12;100.00;96883.31;4997292;28;20093;-42
2022/06/08 02:37:13;;;;;;;2.90;1.70;;;12.50;99.90;;;12.08;100.00;96888.81;5011408;28;20064;-42
2022/06/08 02:39:51;;;;;;;8.48;2.22;;;12.40;99.90;;;12.05;100.00;96889.84;5008543;28;20525;-41
2022/06/08 02:42:24;;;;;;;4.00;1.73;;;12.40;99.90;;;12.00;100.00;96882.13;5004578;28;20026;-42
2022/06/08 02:44:55;;;;;;;2.45;1.58;;;12.40;99.90;;;12.02;100.00;96888.22;5002164;28;20033;-40
2022/06/08 02:47:30;;;;;;;3.20;1.77;;;12.40;99.90;;;11.98;100.00;96876.06;5011776;28;20057;-41
2022/06/08 02:50:00;;;;;;;3.35;1.90;;;12.30;99.90;;;11.99;100.00;96880.44;5007079;28;20030;-42
2022/06/08 02:52:27;;;;;;;6.10;1.80;;;12.40;99.90;;;11.95;100.00;96873.63;5003209;28;20026;-41
2022/06/08 02:54:55;;;;;;;3.83;2.40;;;12.40;99.90;;;11.94;100.00;96874.53;4998934;28;20033;-41
2022/06/08 02:57:42;;;;;;;1.60;1.50;;;12.30;99.90;;;11.94;100.00;96869.25;5004180;28;20042;-42
2022/06/08 03:00:17;;;;;;;3.13;1.67;;;12.30;99.90;;;11.96;100.00;96874.47;5021222;28;20033;-41
2022/06/08 03:02:58;;;;;;;3.17;1.98;;;12.30;99.90;;;11.95;100.00;96863.03;5004370;28;20022;-41
2022/06/08 03:05:38;;;;;;;2.80;1.77;;;12.30;99.90;;;12.01;100.00;96865.34;5005671;28;20501;-42
2022/06/08 03:08:14;;;;;;;1.60;1.40;;;12.40;99.90;;;12.07;100.00;96860.69;5001986;28;20080;-41
2022/06/08 03:10:43;;;;;;;4.13;2.05;;;12.50;99.90;;;12.09;100.00;96862.31;5020744;28;20019;-42
2022/06/08 03:13:14;;;;;;;2.83;1.92;;;12.50;99.90;;;12.18;100.00;96861.00;5010013;28;20485;-44
2022/06/08 03:15:41;;;;;;;2.40;1.58;;;12.60;99.90;;;12.25;100.00;96859.72;5004967;28;20177;-41
2022/06/08 03:18:07;;;;;;;3.10;1.60;;;12.60;99.90;;;12.30;100.00;96863.00;5009481;28;20022;-40
2022/06/08 03:20:34;;;;;;;3.38;1.83;;;12.70;99.90;;;12.34;100.00;96863.69;5004809;28;20049;-41
2022/06/08 03:22:59;;;;;;;2.40;1.60;;;12.70;99.90;;;12.38;100.00;96855.53;5005696;28;20046;-41
2022/06/08 03:25:25;;;;;;;4.85;1.90;;;12.70;99.90;;;12.44;100.00;96850.84;4998498;28;20077;-41
2022/06/08 03:27:53;;;;;;;3.15;1.60;;;12.80;99.90;;;12.47;100.00;96848.03;5002819;28;20410;-41
2022/06/08 03:30:20;;;;;;;4.30;1.55;;;12.80;99.90;;;12.49;100.00;96851.44;5010522;28;20114;-40
2022/06/08 03:32:45;;;;;;;5.18;1.95;;;12.80;99.90;;;12.51;100.00;96853.09;5006934;28;20056;-41
2022/06/08 03:35:12;;;;;;;2.25;1.60;;;12.90;99.90;;;12.53;100.00;96848.56;5011054;28;20025;-41
2022/06/08 03:37:37;;;;;;;6.10;1.98;;;12.90;99.90;;;12.54;100.00;96849.41;5008208;28;20470;-41
2022/06/08 03:40:05;;;;;;;4.05;1.65;;;12.90;99.90;;;12.56;100.00;96851.06;5015191;28;20033;-41
2022/06/08 03:42:31;;;;;;;3.50;1.65;;;12.90;99.90;;;12.57;100.00;96849.25;5001426;28;20438;-43
2022/06/08 03:44:56;;;;;;;2.15;1.33;;;12.90;99.90;;;12.58;100.00;96843.88;5006894;28;20049;-41
2022/06/08 03:47:29;;;;;;;2.55;1.45;;;13.00;99.90;;;12.70;100.00;96845.00;5000634;28;20247;-40
2022/06/08 03:49:59;;;;;;;4.10;1.88;;;13.00;99.90;;;12.70;100.00;96838.84;5015764;28;20112;-42
2022/06/08 03:52:29;;;;;;;2.90;1.50;;;13.10;99.90;;;12.80;100.00;96840.91;5006679;28;20026;-42
2022/06/08 03:55:00;;;;;;;3.20;1.40;;;13.20;99.90;;;12.91;100.00;96842.97;5017338;28;20018;-42
2022/06/08 03:57:29;;;;;;;3.92;1.65;;;13.20;99.90;;;12.98;100.00;96835.56;5003424;28;20032;-41
2022/06/08 03:59:55;;;;;;;1.48;1.15;;;13.30;99.90;;;13.09;100.00;96849.03;5003402;28;20088;-41
2022/06/08 04:02:23;;;;;;;1.85;1.27;;;13.40;99.90;;;13.16;100.00;96839.81;5003943;28;20018;-41
2022/06/08 04:04:49;;;;;;;2.45;1.20;;;13.50;99.90;;;13.34;100.00;96859.13;5023825;28;20056;-42
2022/06/08 04:07:15;;;;;;;2.53;1.40;;;13.60;99.90;;;13.46;100.00;96854.94;5001983;28;20030;-42
2022/06/08 04:09:41;;;;;;;1.67;1.50;;;13.70;99.90;;;13.57;100.00;96854.31;4999969;28;20031;-42
2022/06/08 04:12:08;;;;;;;3.10;1.25;;;13.80;99.90;;;13.66;100.00;96848.50;4997065;28;20029;-42
2022/06/08 04:14:34;;;;;;;2.00;1.30;;;13.90;99.90;;;13.77;100.00;96853.16;5001684;28;20034;-41
2022/06/08 04:17:01;;;;;;;2.10;1.30;;;14.00;99.90;;;13.88;100.00;96860.47;5010536;28;20018;-42
2022/06/08 04:19:28;;;;;;;2.95;1.20;;;14.20;99.90;;;14.00;100.00;96856.25;5007198;28;20037;-41
2022/06/08 04:21:53;;;;;;;2.50;1.30;;;14.30;99.90;;;14.11;100.00;96845.88;5005277;28;20025;-40
2022/06/08 04:24:22;;;;;;;2.95;1.30;;;14.40;99.90;;;14.32;100.00;96854.34;5011118;28;20032;-41
2022/06/08 04:26:49;;;;;;;3.13;1.52;;;14.60;99.90;;;14.46;100.00;96848.16;5013944;28;20034;-41
2022/06/08 04:29:15;;;;;;;3.08;1.50;;;14.70;99.90;;;14.56;100.00;96851.97;5014962;22;20069;-37
2022/06/08 04:31:41;;;;;;;3.05;1.30;;;14.80;99.90;;;14.63;100.00;96850.69;5023194;28;20037;-37
2022/06/08 04:34:10;;;;;;;4.13;1.23;;;14.90;99.90;;;14.69;100.00;96862.69;5021869;28;20030;-37
2022/06/08 04:36:39;;;;;;;1.55;1.05;;;14.90;99.90;;;14.71;100.00;96855.50;5024749;28;20025;-37
2022/06/08 04:39:07;;;;;;;2.70;1.17;;;14.90;99.90;;;14.70;100.00;96849.34;5019165;28;20374;-37
2022/06/08 04:41:34;;;;;;;1.40;1.10;;;14.90;99.90;;;14.66;100.00;96841.66;5006323;28;20541;-37
2022/06/08 04:44:00;;;;;;;2.50;1.33;;;14.90;99.90;;;14.55;100.00;96834.31;5003646;28;20076;-37
2022/06/08 04:46:26;;;;;;;5.03;1.27;;;14.80;99.90;;;14.51;100.00;96838.97;5000255;28;20030;-37
2022/06/08 04:48:52;;;;;;;7.40;1.50;;;14.80;99.90;;;14.40;100.00;96827.34;5005664;28;20647;-37
2022/06/08 04:51:18;;;;;;;3.28;1.50;;;14.70;99.90;;;14.31;100.00;96824.28;5004779;28;20029;-37
2022/06/08 04:53:47;;;;;;;2.47;1.48;;;14.60;99.90;;;14.30;100.00;96833.22;5006085;28;20022;-37
2022/06/08 04:56:13;;;;;;;3.67;1.30;;;14.60;99.90;;;14.27;100.00;96833.38;5006562;28;20240;-37
2022/06/08 04:58:39;;;;;;;3.92;1.52;;;14.50;99.90;;;14.32;100.00;96841.91;5001767;28;20041;-37
2022/06/08 05:01:05;;;;;;;3.10;1.35;;;14.60;99.90;;;14.42;100.00;96836.88;5004560;28;20025;-37
2022/06/08 05:03:31;;;;;;;1.95;1.20;;;14.60;99.90;;;14.49;100.00;96824.09;5007231;28;20048;-37
2022/06/08 05:05:59;;;;;;;2.72;1.50;;;14.70;99.90;;;14.66;100.00;96847.84;4998548;28;20036;-37
2022/06/08 05:08:26;;;;;;;1.83;1.13;;;14.70;99.90;;;14.93;100.00;96860.34;4997573;28;20034;-37
2022/06/08 05:10:54;;;;;;;4.38;1.40;;;14.80;99.90;;;15.31;100.00;96849.06;5003576;28;20486;-37
2022/06/08 05:13:21;;;;;;;2.63;1.10;;;15.00;99.90;;;15.79;98.67;96849.47;5003254;28;20033;-37
2022/06/08 05:15:49;;;;;;;2.95;0.93;;;15.40;99.90;;;16.30;94.24;96854.03;5005071;28;20076;-37
2022/06/08 05:18:18;;;;;;;5.30;1.33;;;15.70;99.90;;;16.63;90.26;96859.78;5002299;28;20059;-37
2022/06/08 05:20:45;;;;;;;3.03;1.10;;;16.10;99.90;;;17.04;88.55;96854.19;4997721;28;20491;-37
2022/06/08 05:23:20;;;;;;;3.35;1.17;;;16.50;99.90;;;17.68;83.24;96858.47;5004469;28;20030;-37
2022/06/08 05:25:46;;;;;;;2.55;1.05;;;16.90;99.90;;;18.39;79.81;96853.16;5004987;28;20026;-37
2022/06/08 05:28:13;;;;;;;1.65;0.98;;;17.50;99.90;;;18.56;75.62;96850.03;5005108;28;20048;-37
2022/06/08 05:30:41;;;;;;;2.90;0.90;;;17.80;99.90;;;18.37;77.98;96861.25;4998874;28;20261;-37
2022/06/08 05:33:08;;;;;;;3.15;1.08;;;17.90;99.90;;;18.09;79.05;96862.56;5004368;28;20049;-38
2022/06/08 05:35:34;;;;;;;7.25;1.30;;;17.90;99.90;;;17.69;79.38;96855.69;5002753;28;20068;-37
2022/06/08 05:38:00;;;;;;;1.60;1.10;;;17.70;99.90;;;17.49;82.00;96850.97;5001130;28;20545;-37
2022/06/08 05:40:32;;;;;;;4.57;0.98;;;17.50;99.90;;;17.31;82.35;96854.00;5003420;28;20034;-37
2022/06/08 05:43:00;;;;;;;3.25;1.08;;;17.40;99.90;;;17.27;84.37;96849.03;5005024;28;20390;-37
2022/06/08 05:45:29;;;;;;;4.55;1.40;;;17.30;99.90;;;17.31;85.34;96848.69;5007310;28;20061;-37
2022/06/08 05:47:57;;;;;;;2.53;1.15;;;17.40;99.90;;;17.41;81.62;96845.34;5004687;28;20014;-37
2022/06/08 05:50:23;;;;;;;2.90;1.20;;;17.50;99.90;;;17.41;79.88;96840.00;4997131;28;20526;-37
2022/06/08 05:52:49;;;;;;;2.65;1.05;;;17.50;99.90;;;17.66;78.82;96852.41;5004076;28;20489;-37
2022/06/08 05:55:17;;;;;;;3.05;1.20;;;17.80;99.90;;;17.88;79.30;96851.69;5003115;28;20030;-37
2022/06/08 05:57:43;;;;;;;4.40;1.50;;;18.00;99.90;;;17.88;76.83;96844.50;5002128;28;20021;-37
2022/06/08 06:00:18;;;;;;;4.63;1.40;;;18.00;99.90;;;17.96;78.04;96841.25;5005748;28;20022;-37
2022/06/08 06:02:44;;;;;;;5.07;1.20;;;18.10;99.90;;;18.15;75.48;96840.72;5006068;28;20486;-37
2022/06/08 06:05:13;;;;;;;4.75;1.23;;;18.30;99.90;;;18.49;76.16;96832.78;5001751;28;20489;-37
2022/06/08 06:07:40;;;;;;;3.13;1.05;;;18.50;99.90;;;18.81;73.23;96829.41;4996716;28;20030;-37
2022/06/08 06:10:07;;;;;;;2.45;1.20;;;18.90;99.90;;;18.88;70.15;96803.94;5000103;28;20030;-38
2022/06/08 06:12:34;;;;;;;3.95;1.10;;;19.10;99.90;;;19.23;69.40;96837.66;4998252;28;20060;-37
2022/06/08 06:15:01;;;;;;;3.25;1.20;;;19.20;99.90;;;19.40;67.83;96837.13;5001204;28;20029;-37
2022/06/08 06:17:28;;;;;;;2.70;0.98;;;19.40;99.90;;;19.37;67.42;96833.84;5008322;28;20068;-38
2022/06/08 06:19:56;;;;;;;1.90;0.93;;;19.40;99.90;;;19.42;67.03;96824.47;5005964;28;20029;-37
2022/06/08 06:22:21;;;;;;;3.85;0.95;;;19.40;99.90;;;19.38;66.42;96827.50;5007216;28;20092;-35
2022/06/08 06:24:47;;;;;;;3.97;1.20;;;19.50;99.90;;;19.58;68.80;96826.75;5004306;28;20033;-35
2022/06/08 06:27:13;;;;;;;5.75;1.52;;;19.60;99.90;;;19.40;65.08;96830.94;5009712;28;20497;-36
2022/06/08 06:29:38;;;;;;;4.80;1.20;;;19.70;99.90;;;19.37;67.29;96832.03;5007174;28;20116;-35
2022/06/08 06:32:10;;;;;;;5.28;1.70;;;19.60;99.90;;;19.27;65.23;96829.25;5009601;28;20026;-35
2022/06/08 06:34:37;;;;;;;6.45;1.25;;;19.60;99.90;;;19.31;66.78;96823.66;5007285;28;20232;-35
2022/06/08 06:37:02;;;;;;;2.75;1.23;;;19.50;99.90;;;19.39;64.97;96821.22;5007873;28;20121;-35
2022/06/08 06:39:28;;;;;;;4.28;1.10;;;19.50;99.90;;;19.50;65.86;96823.84;5001494;28;20109;-35
2022/06/08 06:41:57;;;;;;;2.92;1.20;;;19.60;99.90;;;19.56;64.48;96822.47;5006878;28;20118;-35
2022/06/08 06:44:23;;;;;;;3.10;1.23;;;19.70;99.90;;;19.58;64.62;96816.03;5004798;28;20220;-36
2022/06/08 06:46:49;;;;;;;1.33;0.90;;;19.70;99.90;;;19.60;65.68;96818.59;5005198;28;20034;-37
2022/06/08 06:49:15;;;;;;;3.40;1.08;;;19.70;99.90;;;19.58;67.29;96815.22;5003457;28;20062;-37
2022/06/08 06:51:41;;;;;;;2.30;0.90;;;19.70;99.90;;;19.50;65.35;96815.81;5007094;28;20409;-37
2022/06/08 06:54:11;;;;;;;3.08;1.10;;;19.70;99.90;;;19.49;65.00;96816.81;5002959;28;20289;-37
2022/06/08 06:56:37;;;;;;;4.18;0.98;;;19.60;99.90;;;19.34;64.96;96816.22;5006701;28;20052;-37
2022/06/08 06:59:04;;;;;;;6.07;1.83;;;19.60;99.90;;;19.30;66.34;96820.13;5005606;28;20539;-37
2022/06/08 07:01:30;;;;;;;2.00;1.10;;;19.50;99.90;;;19.29;66.87;96818.44;5004985;28;20072;-37
2022/06/08 07:03:57;;;;;;;2.17;1.02;;;19.50;99.90;;;19.23;65.10;96805.56;5005005;28;20195;-37
2022/06/08 07:06:23;;;;;;;6.05;0.80;;;19.40;99.90;;;19.26;67.84;96816.84;5006873;28;20059;-37
2022/06/08 07:08:48;;;;;;;4.85;1.20;;;19.40;99.90;;;19.16;66.32;96801.69;5005277;28;20062;-37
2022/06/08 07:11:33;;;;;;;3.60;1.13;;;19.30;99.90;;;19.24;67.33;96809.94;5008412;28;20021;-37
2022/06/08 07:14:00;;;;;;;2.58;1.20;;;19.30;99.90;;;19.11;66.55;96807.41;5003374;28;20228;-37
2022/06/08 07:16:26;;;;;;;5.05;1.30;;;19.20;99.90;;;18.97;66.88;96802.31;5000316;28;20030;-37
2022/06/08 07:18:52;;;;;;;5.68;1.30;;;19.10;99.90;;;18.82;66.80;96791.88;5002450;28;20058;-37
2022/06/08 07:21:18;;;;;;;3.85;1.10;;;19.00;99.90;;;18.85;69.31;96788.16;5002971;28;20100;-37
2022/06/08 07:23:44;;;;;;;3.33;1.13;;;19.00;99.90;;;18.76;69.17;96794.19;5004482;28;20029;-37
2022/06/08 07:26:11;;;;;;;4.05;1.20;;;18.90;99.90;;;18.70;69.49;96787.53;5004849;28;20025;-37
2022/06/08 07:28:39;;;;;;;3.00;1.20;;;18.90;99.90;;;18.76;69.44;96786.19;4999930;28;20371;-37
2022/06/08 07:31:05;;;;;;;4.68;1.35;;;18.90;99.90;;;18.72;70.18;96774.91;5005680;28;20486;-37
2022/06/08 07:33:33;;;;;;;3.08;1.10;;;18.90;99.90;;;18.55;69.51;96778.03;5007725;28;20021;-37
2022/06/08 07:36:00;;;;;;;6.72;1.50;;;18.90;99.90;;;18.57;71.94;96776.94;5005199;28;20025;-38
2022/06/08 07:38:26;;;;;;;5.05;1.30;;;18.80;99.90;;;18.64;69.10;96767.47;5007317;28;20029;-38
2022/06/08 07:40:52;;;;;;;4.38;1.23;;;18.90;99.90;;;18.70;70.37;96771.50;5004385;28;20363;-37
2022/06/08 07:43:20;;;;;;;4.30;1.05;;;18.80;99.90;;;18.72;70.02;96761.53;5007570;28;20478;-35
2022/06/08 07:45:46;;;;;;;3.58;1.20;;;18.90;99.90;;;18.74;70.66;96762.25;5006067;28;20061;-36
2022/06/08 07:50:56;;;;;;;3.08;1.08;;;19.00;99.90;;;18.99;70.22;96758.50;5005144;28;20118;-37
2022/06/08 07:53:21;;;;;;;4.60;1.15;;;19.10;99.90;;;19.12;70.41;96750.31;5005429;28;20105;-37
2022/06/08 07:55:47;;;;;;;5.05;1.70;;;19.20;99.90;;;19.24;70.70;96743.13;5006142;28;20096;-37
2022/06/08 07:58:13;;;;;;;2.40;0.98;;;19.40;99.90;;;19.29;68.38;96738.25;5007375;28;20413;-37
2022/06/08 08:00:43;;;;;;;9.02;1.27;;;19.50;99.90;;;19.34;67.54;96749.38;5013721;28;20053;-36
2022/06/08 08:03:10;;;;;;;4.30;1.30;;;19.50;99.90;;;19.23;66.49;96742.25;5004426;28;20025;-35
2022/06/08 08:05:36;;;;;;;5.22;1.02;;;19.50;99.90;;;19.36;68.94;96738.56;5002005;28;20023;-35
2022/06/08 08:08:01;;;;;;;6.60;1.58;;;19.50;99.90;;;19.44;65.01;96738.78;5002179;28;20584;-35
2022/06/08 08:10:27;;;;;;;3.42;1.10;;;19.60;99.90;;;19.57;66.52;96739.44;5000248;28;20037;-35
2022/06/08 08:12:55;;;;;;;4.60;1.38;;;19.70;99.90;;;19.62;62.13;96736.41;5002179;28;20018;-35
2022/06/08 08:15:23;;;;;;;5.15;1.15;;;19.80;99.90;;;19.55;62.36;96730.72;5003722;28;20537;-35
2022/06/08 08:17:48;;;;;;;2.25;1.02;;;19.80;99.90;;;19.61;63.33;96738.25;5001789;28;20033;-36
2022/06/08 08:20:16;;;;;;;4.00;1.30;;;19.80;99.90;;;19.78;62.49;96736.00;5000745;28;20390;-35
2022/06/08 08:22:42;;;;;;;3.35;1.23;;;19.90;99.90;;;19.83;62.40;96718.56;5000323;28;20034;-35
2022/06/08 08:25:11;;;;;;;6.43;1.85;;;20.00;99.90;;;19.99;69.37;96725.25;5002281;28;20028;-36
2022/06/08 08:27:37;;;;;;;4.68;0.93;;;20.10;99.90;;;20.16;61.41;96724.66;5000770;28;20097;-35
2022/06/08 08:30:05;;;;;;;4.65;1.10;;;20.30;99.90;;;20.25;60.97;96727.53;5002958;28;20036;-35
2022/06/08 08:32:30;;;;;;;3.92;1.10;;;20.40;99.90;;;20.30;60.08;96723.47;5005288;28;20036;-35
2022/06/08 08:34:57;;;;;;;5.30;1.40;;;20.50;99.90;;;20.25;58.79;96717.66;5004511;28;20026;-35
2022/06/08 08:37:22;;;;;;;1.63;0.82;;;20.50;99.90;;;20.35;58.69;96718.56;5007256;28;20029;-35
2022/06/08 08:39:48;;;;;;;4.03;1.00;;;20.50;99.90;;;20.37;56.89;96713.91;5005610;28;20026;-35
2022/06/08 08:42:20;;;;;;;2.55;0.93;;;20.60;99.90;;;20.41;55.26;96712.66;5006713;28;20041;-35
2022/06/08 08:44:57;;;;;;;4.65;1.00;;;20.60;99.90;;;20.45;54.80;96707.03;5004043;28;20030;-35
2022/06/08 08:47:35;;;;;;;4.65;1.20;;;20.70;99.90;;;20.33;53.98;96714.31;5006782;28;20068;-36
2022/06/08 08:50:35;;;;;;;3.58;1.10;;;20.60;99.60;;;20.25;58.81;96706.13;5002513;28;20904;-35
2022/06/08 08:53:17;;;;;;;4.13;1.17;;;20.50;99.90;;;20.34;56.67;96700.78;5004071;28;20460;-37
2022/06/08 08:55:52;;;;;;;3.55;1.10;;;20.60;99.90;;;20.52;56.49;96706.34;5001800;28;20056;-38
2022/06/08 08:58:26;;;;;;;6.90;1.00;;;20.70;99.90;;;20.65;54.83;96692.75;5005891;28;20041;-37
2022/06/08 09:01:01;;;;;;;2.15;1.17;;;20.80;99.80;;;20.75;56.22;96690.13;5017986;28;20026;-37
2022/06/08 09:03:29;;;;;;;2.38;0.80;;;21.00;99.90;;;20.84;55.58;96681.25;5001993;28;20429;-36
2022/06/08 09:06:12;;;;;;;7.53;1.40;;;21.00;99.90;;;20.93;55.75;96677.72;5002918;28;20053;-35
2022/06/08 09:08:38;;;;;;;4.07;1.33;;;21.10;99.90;;;20.96;56.43;96673.91;5001574;28;20057;-36
2022/06/08 09:11:34;;;;;;;4.03;1.10;;;21.20;99.90;;;20.88;55.31;96679.13;5004883;28;20470;-35
2022/06/08 09:14:22;;;;;;;5.55;1.10;;;21.10;99.80;;;20.91;52.80;96671.66;4999908;28;20037;-36
2022/06/08 09:17:16;;;;;;;3.08;1.00;;;21.10;98.90;;;20.95;53.38;96670.41;5004667;28;20025;-36
2022/06/08 09:19:48;;;;;;;3.15;1.00;;;21.10;98.60;;;21.04;53.91;96665.19;4998241;28;20049;-36
2022/06/08 09:22:17;;;;;;;4.95;1.20;;;21.20;99.00;;;21.09;52.63;96669.16;5005694;28;20417;-35
2022/06/08 09:24:51;;;;;;;3.00;1.00;;;21.30;98.30;;;21.09;52.89;96658.44;5004307;28;20030;-36
2022/06/08 09:27:48;;;;;;;2.70;1.05;;;21.30;98.10;;;21.25;54.56;96657.03;5002001;28;20072;-35
2022/06/08 09:30:19;;;;;;;3.28;0.73;;;21.40;98.80;;;21.31;49.87;96651.09;5003096;28;20026;-35
2022/06/08 09:33:13;;;;;;;5.45;1.15;;;21.50;97.00;;;21.38;53.20;96640.66;5004888;28;20018;-35
2022/06/08 09:35:56;;;;;;;6.85;1.02;;;21.50;97.60;;;21.46;53.20;96638.13;4997582;28;20025;-38
2022/06/08 09:38:25;;;;;;;2.15;0.80;;;21.60;96.90;;;21.62;50.20;96642.91;5005133;28;20018;-38
2022/06/08 09:41:22;;;;;;;4.10;1.00;;;21.70;96.50;;;21.63;49.00;96636.56;4999751;28;20034;-35
2022/06/08 09:43:54;;;;;;;2.63;0.90;;;21.80;95.00;;;21.60;47.97;96634.16;5002671;28;20041;-36
2022/06/08 09:51:25;;;;;;;5.00;1.20;;;21.80;94.80;;;21.68;48.59;96626.25;5004924;28;20105;-35
2022/06/08 09:52:35;;;;;;;2.45;0.93;;;22.10;95.40;;;22.12;46.97;96621.13;4999878;28;20095;-36
2022/06/08 09:55:12;;;;;;;2.40;0.90;;;22.30;94.10;;;22.30;44.62;96610.47;4997885;28;20021;-36
2022/06/08 09:57:52;;;;;;;4.47;0.90;;;22.60;92.50;;;22.29;44.56;96608.81;5018025;28;20254;-35
2022/06/08 10:00:24;;;;;;;1.83;0.80;;;22.70;91.90;;;22.37;45.35;96606.19;5001333;28;20073;-35
2022/06/08 10:03:35;;;;;;;1.95;0.70;;;22.70;92.10;;;22.80;45.16;96609.19;5003941;28;20030;-35
2022/06/08 10:06:22;;;;;;;2.72;0.90;;;23.10;92.50;;;23.06;45.94;96609.34;5004234;28;20099;-36
2022/06/08 10:09:47;;;;;;;1.67;0.80;;;23.40;92.40;;;23.37;42.63;96595.47;5001523;28;20037;-37
2022/06/08 10:12:35;;;;;;;5.20;1.42;;;23.80;89.90;;;23.42;41.96;96607.44;4976820;28;20027;-36
2022/06/08 10:15:28;;;;;;;1.33;0.80;;;23.80;87.70;;;23.50;41.88;96601.28;5005537;28;20036;-35
2022/06/08 10:18:55;;;;;;;5.68;1.00;;;23.80;87.40;;;23.67;41.26;96588.78;5004627;28;20474;-36
2022/06/08 10:21:26;;;;;;;1.25;0.63;;;23.90;86.30;;;23.82;40.58;96597.16;5002133;28;20033;-36
2022/06/08 10:24:22;;;;;;;3.25;0.70;;;23.90;84.10;;;23.73;43.37;96584.63;4988163;28;20037;-36
2022/06/08 10:27:11;;;;;;;3.28;0.85;;;23.80;87.40;;;23.42;41.20;96585.91;5002761;28;20045;-36
2022/06/08 10:30:03;;;;;;;1.92;0.80;;;23.70;84.00;;;23.25;42.43;96582.25;5004193;28;20034;-36
2022/06/08 10:33:05;;;;;;;1.27;0.70;;;23.50;85.10;;;23.23;41.15;96584.25;5034509;23;20051;-46
2022/06/08 10:35:36;;;;;;;3.95;0.90;;;23.40;85.40;;;23.19;40.94;96579.34;5004435;28;20029;-47
2022/06/08 10:38:04;;;;;;;2.42;0.90;;;23.30;83.40;;;23.14;42.59;96573.59;5050690;28;20045;-46
2022/06/08 10:40:52;;;;;;;1.45;0.73;;;23.30;85.90;;;23.29;42.92;96576.56;5042833;28;20021;-48
2022/06/08 10:43:21;;;;;;;3.92;1.10;;;23.40;85.70;;;23.27;40.31;96567.81;5025821;28;20484;-48